sensor_id;sensor_type;location;lat;lon;timestamp;P1;durP1;ratioP1;P2;durP2;ratioP2
73136;SDS011;67767;45.636;11.756;2024-01-07T00:01:15;9.67;;;4.40;;
73136;SDS011;67767;45.636;11.756;2024-01-07T00:03:41;6.07;;;2.67;;
73136;SDS011;67767;45.636;11.756;2024-01-07T00:06:10;7.57;;;3.65;;
73136;SDS011;67767;45.636;11.756;2024-01-07T00:08:36;7.23;;;3.30;;
73136;SDS011;67767;45.636;11.756;2024-01-07T00:11:01;7.97;;;3.28;;
73136;SDS011;67767;45.636;11.756;2024-01-07T00:13:27;7.90;;;3.33;;
73136;SDS011;67767;45.636;11.756;2024-01-07T00:15:53;6.00;;;2.58;;
73136;SDS011;67767;45.636;11.756;2024-01-07T00:18:21;5.85;;;2.55;;
73136;SDS011;67767;45.636;11.756;2024-01-07T00:20:48;7.73;;;3.17;;
73136;SDS011;67767;45.636;11.756;2024-01-07T00:23:14;4.95;;;2.35;;
73136;SDS011;67767;45.636;11.756;2024-01-07T00:25:40;6.05;;;2.70;;
73136;SDS011;67767;45.636;11.756;2024-01-07T00:28:06;5.80;;;2.13;;
73136;SDS011;67767;45.636;11.756;2024-01-07T00:30:31;3.17;;;1.65;;
73136;SDS011;67767;45.636;11.756;2024-01-07T00:32:57;3.53;;;1.43;;
73136;SDS011;67767;45.636;11.756;2024-01-07T00:35:23;3.00;;;1.05;;
73136;SDS011;67767;45.636;11.756;2024-01-07T00:37:48;3.17;;;1.17;;
73136;SDS011;67767;45.636;11.756;2024-01-07T00:40:14;2.77;;;1.00;;
73136;SDS011;67767;45.636;11.756;2024-01-07T00:42:40;2.30;;;0.90;;
73136;SDS011;67767;45.636;11.756;2024-01-07T00:45:06;2.50;;;0.90;;
73136;SDS011;67767;45.636;11.756;2024-01-07T00:47:32;3.07;;;1.37;;
73136;SDS011;67767;45.636;11.756;2024-01-07T00:49:57;2.65;;;0.90;;
73136;SDS011;67767;45.636;11.756;2024-01-07T00:52:23;1.97;;;0.70;;
73136;SDS011;67767;45.636;11.756;2024-01-07T00:54:49;2.13;;;1.00;;
73136;SDS011;67767;45.636;11.756;2024-01-07T00:57:14;2.33;;;1.00;;
73136;SDS011;67767;45.636;11.756;2024-01-07T00:59:40;3.03;;;0.80;;
73136;SDS011;67767;45.636;11.756;2024-01-07T01:02:06;2.60;;;0.90;;
73136;SDS011;67767;45.636;11.756;2024-01-07T01:04:31;2.07;;;0.90;;
73136;SDS011;67767;45.636;11.756;2024-01-07T01:06:57;2.13;;;0.90;;
73136;SDS011;67767;45.636;11.756;2024-01-07T01:09:22;2.53;;;0.70;;
73136;SDS011;67767;45.636;11.756;2024-01-07T01:11:48;1.65;;;0.77;;
73136;SDS011;67767;45.636;11.756;2024-01-07T01:14:15;2.23;;;0.70;;
73136;SDS011;67767;45.636;11.756;2024-01-07T01:16:40;1.90;;;0.80;;
73136;SDS011;67767;45.636;11.756;2024-01-07T01:19:06;2.85;;;0.80;;
73136;SDS011;67767;45.636;11.756;2024-01-07T01:21:32;2.93;;;1.00;;
73136;SDS011;67767;45.636;11.756;2024-01-07T01:23:57;3.93;;;0.90;;
73136;SDS011;67767;45.636;11.756;2024-01-07T01:26:23;2.93;;;0.90;;
73136;SDS011;67767;45.636;11.756;2024-01-07T01:28:49;3.50;;;1.10;;
73136;SDS011;67767;45.636;11.756;2024-01-07T01:31:15;3.50;;;1.40;;
73136;SDS011;67767;45.636;11.756;2024-01-07T01:33:41;4.90;;;1.55;;
73136;SDS011;67767;45.636;11.756;2024-01-07T01:36:07;8.70;;;4.60;;
73136;SDS011;67767;45.636;11.756;2024-01-07T01:38:33;9.07;;;4.78;;
73136;SDS011;67767;45.636;11.756;2024-01-07T01:40:58;10.75;;;4.60;;
73136;SDS011;67767;45.636;11.756;2024-01-07T01:43:25;8.73;;;3.63;;
73136;SDS011;67767;45.636;11.756;2024-01-07T01:45:52;6.00;;;2.08;;
73136;SDS011;67767;45.636;11.756;2024-01-07T01:48:18;4.30;;;2.00;;
73136;SDS011;67767;45.636;11.756;2024-01-07T01:50:44;3.33;;;1.30;;
73136;SDS011;67767;45.636;11.756;2024-01-07T01:53:10;3.13;;;1.23;;
73136;SDS011;67767;45.636;11.756;2024-01-07T01:55:36;2.15;;;0.80;;
73136;SDS011;67767;45.636;11.756;2024-01-07T01:58:02;3.87;;;1.00;;
73136;SDS011;67767;45.636;11.756;2024-01-07T02:00:29;1.70;;;0.70;;
73136;SDS011;67767;45.636;11.756;2024-01-07T02:02:55;1.25;;;0.60;;
73136;SDS011;67767;45.636;11.756;2024-01-07T02:05:21;4.97;;;1.00;;
73136;SDS011;67767;45.636;11.756;2024-01-07T02:07:47;2.05;;;0.60;;
73136;SDS011;67767;45.636;11.756;2024-01-07T02:10:14;2.57;;;0.70;;
73136;SDS011;67767;45.636;11.756;2024-01-07T02:12:39;1.92;;;0.50;;
73136;SDS011;67767;45.636;11.756;2024-01-07T02:15:05;6.03;;;1.70;;
73136;SDS011;67767;45.636;11.756;2024-01-07T02:17:31;7.97;;;2.95;;
73136;SDS011;67767;45.636;11.756;2024-01-07T02:19:57;11.43;;;3.22;;
73136;SDS011;67767;45.636;11.756;2024-01-07T02:22:23;11.73;;;4.10;;
73136;SDS011;67767;45.636;11.756;2024-01-07T02:24:48;18.70;;;7.95;;
73136;SDS011;67767;45.636;11.756;2024-01-07T02:27:14;4.87;;;1.30;;
73136;SDS011;67767;45.636;11.756;2024-01-07T02:29:40;4.35;;;1.27;;
73136;SDS011;67767;45.636;11.756;2024-01-07T02:32:05;9.63;;;3.53;;
73136;SDS011;67767;45.636;11.756;2024-01-07T02:34:31;5.05;;;1.20;;
73136;SDS011;67767;45.636;11.756;2024-01-07T02:36:57;8.00;;;2.63;;
73136;SDS011;67767;45.636;11.756;2024-01-07T02:39:22;8.90;;;2.88;;
73136;SDS011;67767;45.636;11.756;2024-01-07T02:41:48;4.13;;;1.30;;
73136;SDS011;67767;45.636;11.756;2024-01-07T02:44:14;7.57;;;2.22;;
73136;SDS011;67767;45.636;11.756;2024-01-07T02:46:40;3.33;;;0.97;;
73136;SDS011;67767;45.636;11.756;2024-01-07T02:49:05;3.17;;;1.00;;
73136;SDS011;67767;45.636;11.756;2024-01-07T02:51:31;1.37;;;0.60;;
73136;SDS011;67767;45.636;11.756;2024-01-07T02:53:57;1.60;;;0.80;;
73136;SDS011;67767;45.636;11.756;2024-01-07T02:56:22;2.27;;;0.80;;
73136;SDS011;67767;45.636;11.756;2024-01-07T02:58:48;2.13;;;0.82;;
73136;SDS011;67767;45.636;11.756;2024-01-07T03:01:14;2.40;;;0.90;;
73136;SDS011;67767;45.636;11.756;2024-01-07T03:03:39;2.63;;;0.90;;
73136;SDS011;67767;45.636;11.756;2024-01-07T03:06:05;4.05;;;1.20;;
73136;SDS011;67767;45.636;11.756;2024-01-07T03:08:31;4.23;;;1.20;;
73136;SDS011;67767;45.636;11.756;2024-01-07T03:10:56;2.58;;;1.00;;
73136;SDS011;67767;45.636;11.756;2024-01-07T03:13:22;2.70;;;0.97;;
73136;SDS011;67767;45.636;11.756;2024-01-07T03:15:48;1.65;;;0.68;;
73136;SDS011;67767;45.636;11.756;2024-01-07T03:18:14;1.92;;;0.60;;
73136;SDS011;67767;45.636;11.756;2024-01-07T03:20:39;3.70;;;0.60;;
73136;SDS011;67767;45.636;11.756;2024-01-07T03:23:05;1.92;;;0.80;;
73136;SDS011;67767;45.636;11.756;2024-01-07T03:25:31;1.57;;;0.60;;
73136;SDS011;67767;45.636;11.756;2024-01-07T03:27:57;3.45;;;0.70;;
73136;SDS011;67767;45.636;11.756;2024-01-07T03:30:23;1.67;;;0.70;;
73136;SDS011;67767;45.636;11.756;2024-01-07T03:32:48;2.45;;;0.90;;
73136;SDS011;67767;45.636;11.756;2024-01-07T03:35:14;2.97;;;0.90;;
73136;SDS011;67767;45.636;11.756;2024-01-07T03:37:40;3.83;;;1.50;;
73136;SDS011;67767;45.636;11.756;2024-01-07T03:40:09;3.47;;;1.60;;
73136;SDS011;67767;45.636;11.756;2024-01-07T03:42:36;3.30;;;1.30;;
73136;SDS011;67767;45.636;11.756;2024-01-07T03:45:02;2.03;;;0.70;;
73136;SDS011;67767;45.636;11.756;2024-01-07T03:47:29;2.22;;;0.80;;
73136;SDS011;67767;45.636;11.756;2024-01-07T03:49:56;2.33;;;1.00;;
73136;SDS011;67767;45.636;11.756;2024-01-07T03:52:22;1.50;;;0.80;;
73136;SDS011;67767;45.636;11.756;2024-01-07T03:54:47;1.30;;;0.50;;
73136;SDS011;67767;45.636;11.756;2024-01-07T03:57:13;1.95;;;0.73;;
73136;SDS011;67767;45.636;11.756;2024-01-07T03:59:39;2.33;;;1.00;;
73136;SDS011;67767;45.636;11.756;2024-01-07T04:02:04;2.40;;;0.70;;
73136;SDS011;67767;45.636;11.756;2024-01-07T04:04:30;2.65;;;1.00;;
73136;SDS011;67767;45.636;11.756;2024-01-07T04:06:56;2.50;;;1.10;;
73136;SDS011;67767;45.636;11.756;2024-01-07T04:09:21;3.97;;;1.60;;
73136;SDS011;67767;45.636;11.756;2024-01-07T04:11:47;2.80;;;1.20;;
73136;SDS011;67767;45.636;11.756;2024-01-07T04:14:14;2.13;;;0.90;;
73136;SDS011;67767;45.636;11.756;2024-01-07T04:16:40;1.95;;;0.85;;
73136;SDS011;67767;45.636;11.756;2024-01-07T04:19:06;2.07;;;0.70;;
73136;SDS011;67767;45.636;11.756;2024-01-07T04:21:31;1.80;;;0.67;;
73136;SDS011;67767;45.636;11.756;2024-01-07T04:23:57;3.30;;;0.50;;
73136;SDS011;67767;45.636;11.756;2024-01-07T04:26:23;2.50;;;0.70;;
73136;SDS011;67767;45.636;11.756;2024-01-07T04:28:48;3.93;;;1.00;;
73136;SDS011;67767;45.636;11.756;2024-01-07T04:31:14;2.63;;;0.80;;
73136;SDS011;67767;45.636;11.756;2024-01-07T04:33:40;1.95;;;0.70;;
73136;SDS011;67767;45.636;11.756;2024-01-07T04:36:06;2.47;;;0.70;;
73136;SDS011;67767;45.636;11.756;2024-01-07T04:38:32;1.05;;;0.50;;
73136;SDS011;67767;45.636;11.756;2024-01-07T04:40:57;3.07;;;1.03;;
73136;SDS011;67767;45.636;11.756;2024-01-07T04:43:23;2.58;;;1.08;;
73136;SDS011;67767;45.636;11.756;2024-01-07T04:45:49;2.27;;;0.90;;
73136;SDS011;67767;45.636;11.756;2024-01-07T04:48:14;3.03;;;1.10;;
73136;SDS011;67767;45.636;11.756;2024-01-07T04:50:40;2.53;;;0.90;;
73136;SDS011;67767;45.636;11.756;2024-01-07T04:53:09;1.75;;;0.80;;
73136;SDS011;67767;45.636;11.756;2024-01-07T04:55:35;3.45;;;1.02;;
73136;SDS011;67767;45.636;11.756;2024-01-07T04:58:01;2.42;;;0.90;;
73136;SDS011;67767;45.636;11.756;2024-01-07T05:00:29;2.00;;;0.70;;
73136;SDS011;67767;45.636;11.756;2024-01-07T05:02:54;1.67;;;0.70;;
73136;SDS011;67767;45.636;11.756;2024-01-07T05:05:20;3.47;;;1.00;;
73136;SDS011;67767;45.636;11.756;2024-01-07T05:07:46;1.67;;;0.70;;
73136;SDS011;67767;45.636;11.756;2024-01-07T05:10:11;2.53;;;1.00;;
73136;SDS011;67767;45.636;11.756;2024-01-07T05:12:37;3.00;;;1.17;;
73136;SDS011;67767;45.636;11.756;2024-01-07T05:15:03;2.63;;;1.20;;
73136;SDS011;67767;45.636;11.756;2024-01-07T05:17:29;2.42;;;1.05;;
73136;SDS011;67767;45.636;11.756;2024-01-07T05:19:55;2.70;;;1.00;;
73136;SDS011;67767;45.636;11.756;2024-01-07T05:22:21;1.33;;;0.70;;
73136;SDS011;67767;45.636;11.756;2024-01-07T05:24:47;1.45;;;0.70;;
73136;SDS011;67767;45.636;11.756;2024-01-07T05:27:13;1.33;;;0.53;;
73136;SDS011;67767;45.636;11.756;2024-01-07T05:29:38;1.50;;;0.80;;
73136;SDS011;67767;45.636;11.756;2024-01-07T05:32:04;2.47;;;0.80;;
73136;SDS011;67767;45.636;11.756;2024-01-07T05:34:30;1.10;;;0.60;;
73136;SDS011;67767;45.636;11.756;2024-01-07T05:36:56;1.55;;;0.70;;
73136;SDS011;67767;45.636;11.756;2024-01-07T05:39:22;1.67;;;0.53;;
73136;SDS011;67767;45.636;11.756;2024-01-07T05:41:48;1.70;;;0.65;;
73136;SDS011;67767;45.636;11.756;2024-01-07T05:44:13;1.60;;;0.60;;
73136;SDS011;67767;45.636;11.756;2024-01-07T05:46:39;1.98;;;0.70;;
73136;SDS011;67767;45.636;11.756;2024-01-07T05:49:05;1.40;;;0.70;;
73136;SDS011;67767;45.636;11.756;2024-01-07T05:51:31;2.00;;;0.90;;
73136;SDS011;67767;45.636;11.756;2024-01-07T05:53:57;1.92;;;0.93;;
73136;SDS011;67767;45.636;11.756;2024-01-07T05:56:23;1.97;;;0.90;;
73136;SDS011;67767;45.636;11.756;2024-01-07T05:58:49;2.15;;;0.90;;
73136;SDS011;67767;45.636;11.756;2024-01-07T06:01:20;2.00;;;0.90;;
73136;SDS011;67767;45.636;11.756;2024-01-07T06:03:47;2.77;;;1.20;;
73136;SDS011;67767;45.636;11.756;2024-01-07T06:06:13;2.85;;;1.20;;
73136;SDS011;67767;45.636;11.756;2024-01-07T06:08:40;1.92;;;0.90;;
73136;SDS011;67767;45.636;11.756;2024-01-07T06:11:06;1.98;;;0.70;;
73136;SDS011;67767;45.636;11.756;2024-01-07T06:13:32;1.40;;;0.80;;
73136;SDS011;67767;45.636;11.756;2024-01-07T06:15:57;1.23;;;0.70;;
73136;SDS011;67767;45.636;11.756;2024-01-07T06:18:23;1.70;;;0.70;;
73136;SDS011;67767;45.636;11.756;2024-01-07T06:20:49;2.27;;;1.00;;
73136;SDS011;67767;45.636;11.756;2024-01-07T06:23:14;3.90;;;1.40;;
73136;SDS011;67767;45.636;11.756;2024-01-07T06:25:40;2.60;;;1.10;;
73136;SDS011;67767;45.636;11.756;2024-01-07T06:28:06;2.25;;;0.98;;
73136;SDS011;67767;45.636;11.756;2024-01-07T06:30:32;1.57;;;0.70;;
73136;SDS011;67767;45.636;11.756;2024-01-07T06:32:58;2.65;;;1.20;;
73136;SDS011;67767;45.636;11.756;2024-01-07T06:35:24;3.33;;;1.10;;
73136;SDS011;67767;45.636;11.756;2024-01-07T06:37:50;4.80;;;1.60;;
73136;SDS011;67767;45.636;11.756;2024-01-07T06:40:16;6.25;;;2.67;;
73136;SDS011;67767;45.636;11.756;2024-01-07T06:42:41;9.37;;;3.80;;
73136;SDS011;67767;45.636;11.756;2024-01-07T06:45:09;9.20;;;3.50;;
73136;SDS011;67767;45.636;11.756;2024-01-07T06:47:34;7.72;;;2.70;;
73136;SDS011;67767;45.636;11.756;2024-01-07T06:50:00;8.27;;;2.90;;
73136;SDS011;67767;45.636;11.756;2024-01-07T06:52:27;4.83;;;1.60;;
73136;SDS011;67767;45.636;11.756;2024-01-07T06:54:52;7.35;;;2.13;;
73136;SDS011;67767;45.636;11.756;2024-01-07T06:57:18;4.17;;;1.30;;
73136;SDS011;67767;45.636;11.756;2024-01-07T06:59:43;3.53;;;0.75;;
73136;SDS011;67767;45.636;11.756;2024-01-07T07:02:09;2.63;;;0.90;;
73136;SDS011;67767;45.636;11.756;2024-01-07T07:04:35;2.47;;;0.70;;
73136;SDS011;67767;45.636;11.756;2024-01-07T07:07:01;3.38;;;1.25;;
73136;SDS011;67767;45.636;11.756;2024-01-07T07:09:27;5.30;;;1.90;;
73136;SDS011;67767;45.636;11.756;2024-01-07T07:11:53;4.15;;;1.40;;
73136;SDS011;67767;45.636;11.756;2024-01-07T07:14:19;5.57;;;1.93;;
73136;SDS011;67767;45.636;11.756;2024-01-07T07:16:44;7.35;;;3.03;;
73136;SDS011;67767;45.636;11.756;2024-01-07T07:19:10;7.27;;;3.70;;
73136;SDS011;67767;45.636;11.756;2024-01-07T07:21:39;8.82;;;3.67;;
73136;SDS011;67767;45.636;11.756;2024-01-07T07:24:05;7.18;;;3.28;;
73136;SDS011;67767;45.636;11.756;2024-01-07T07:26:31;8.33;;;3.30;;
73136;SDS011;67767;45.636;11.756;2024-01-07T07:28:57;7.55;;;3.78;;
73136;SDS011;67767;45.636;11.756;2024-01-07T07:31:22;9.82;;;4.88;;
73136;SDS011;67767;45.636;11.756;2024-01-07T07:33:48;9.23;;;4.03;;
73136;SDS011;67767;45.636;11.756;2024-01-07T07:36:14;8.93;;;4.43;;
73136;SDS011;67767;45.636;11.756;2024-01-07T07:38:40;9.70;;;4.75;;
73136;SDS011;67767;45.636;11.756;2024-01-07T07:41:06;10.20;;;5.13;;
73136;SDS011;67767;45.636;11.756;2024-01-07T07:43:32;7.05;;;2.95;;
73136;SDS011;67767;45.636;11.756;2024-01-07T07:45:58;6.87;;;2.43;;
73136;SDS011;67767;45.636;11.756;2024-01-07T07:48:25;6.60;;;2.05;;
73136;SDS011;67767;45.636;11.756;2024-01-07T07:50:51;4.10;;;1.65;;
73136;SDS011;67767;45.636;11.756;2024-01-07T07:53:17;5.63;;;1.67;;
73136;SDS011;67767;45.636;11.756;2024-01-07T07:55:43;3.75;;;1.60;;
73136;SDS011;67767;45.636;11.756;2024-01-07T07:58:09;4.57;;;1.50;;
73136;SDS011;67767;45.636;11.756;2024-01-07T08:00:34;4.10;;;1.60;;
73136;SDS011;67767;45.636;11.756;2024-01-07T08:03:00;3.10;;;1.10;;
73136;SDS011;67767;45.636;11.756;2024-01-07T08:05:26;3.53;;;1.60;;
73136;SDS011;67767;45.636;11.756;2024-01-07T08:07:52;4.90;;;1.80;;
73136;SDS011;67767;45.636;11.756;2024-01-07T08:10:17;5.97;;;2.37;;
73136;SDS011;67767;45.636;11.756;2024-01-07T08:12:43;4.68;;;2.00;;
73136;SDS011;67767;45.636;11.756;2024-01-07T08:15:09;7.10;;;2.40;;
73136;SDS011;67767;45.636;11.756;2024-01-07T08:17:34;6.20;;;2.40;;
73136;SDS011;67767;45.636;11.756;2024-01-07T08:20:00;6.47;;;2.80;;
73136;SDS011;67767;45.636;11.756;2024-01-07T08:22:26;5.72;;;2.72;;
73136;SDS011;67767;45.636;11.756;2024-01-07T08:24:52;6.00;;;2.17;;
73136;SDS011;67767;45.636;11.756;2024-01-07T08:27:19;7.85;;;4.00;;
73136;SDS011;67767;45.636;11.756;2024-01-07T08:29:45;8.40;;;4.40;;
73136;SDS011;67767;45.636;11.756;2024-01-07T08:32:10;11.43;;;5.75;;
73136;SDS011;67767;45.636;11.756;2024-01-07T08:34:37;9.48;;;5.40;;
73136;SDS011;67767;45.636;11.756;2024-01-07T08:37:04;12.25;;;6.78;;
73136;SDS011;67767;45.636;11.756;2024-01-07T08:39:29;11.50;;;5.63;;
73136;SDS011;67767;45.636;11.756;2024-01-07T08:41:56;8.57;;;4.93;;
73136;SDS011;67767;45.636;11.756;2024-01-07T08:44:21;9.73;;;4.40;;
73136;SDS011;67767;45.636;11.756;2024-01-07T08:46:47;9.25;;;4.63;;
73136;SDS011;67767;45.636;11.756;2024-01-07T08:49:12;8.50;;;5.27;;
73136;SDS011;67767;45.636;11.756;2024-01-07T08:51:39;9.65;;;4.95;;
73136;SDS011;67767;45.636;11.756;2024-01-07T08:54:04;8.63;;;5.05;;
73136;SDS011;67767;45.636;11.756;2024-01-07T08:56:30;8.27;;;4.57;;
73136;SDS011;67767;45.636;11.756;2024-01-07T08:58:56;6.90;;;3.80;;
73136;SDS011;67767;45.636;11.756;2024-01-07T09:01:21;7.38;;;3.80;;
73136;SDS011;67767;45.636;11.756;2024-01-07T09:03:47;6.70;;;2.97;;
73136;SDS011;67767;45.636;11.756;2024-01-07T09:06:12;6.30;;;2.70;;
73136;SDS011;67767;45.636;11.756;2024-01-07T09:08:38;5.87;;;2.43;;
73136;SDS011;67767;45.636;11.756;2024-01-07T09:11:04;5.40;;;2.53;;
73136;SDS011;67767;45.636;11.756;2024-01-07T09:13:31;5.77;;;2.50;;
73136;SDS011;67767;45.636;11.756;2024-01-07T09:15:57;5.80;;;2.70;;
73136;SDS011;67767;45.636;11.756;2024-01-07T09:18:23;5.03;;;2.25;;
73136;SDS011;67767;45.636;11.756;2024-01-07T09:20:48;7.57;;;3.20;;
73136;SDS011;67767;45.636;11.756;2024-01-07T09:23:14;6.50;;;3.20;;
73136;SDS011;67767;45.636;11.756;2024-01-07T09:25:40;6.40;;;3.35;;
73136;SDS011;67767;45.636;11.756;2024-01-07T09:28:07;6.05;;;2.90;;
73136;SDS011;67767;45.636;11.756;2024-01-07T09:30:32;6.17;;;2.93;;
73136;SDS011;67767;45.636;11.756;2024-01-07T09:32:58;7.47;;;2.85;;
73136;SDS011;67767;45.636;11.756;2024-01-07T09:35:24;5.50;;;2.70;;
73136;SDS011;67767;45.636;11.756;2024-01-07T09:37:50;5.43;;;2.30;;
73136;SDS011;67767;45.636;11.756;2024-01-07T09:40:16;4.00;;;1.90;;
73136;SDS011;67767;45.636;11.756;2024-01-07T09:42:46;6.90;;;2.20;;
73136;SDS011;67767;45.636;11.756;2024-01-07T09:45:12;5.13;;;1.80;;
73136;SDS011;67767;45.636;11.756;2024-01-07T09:47:39;4.53;;;1.83;;
73136;SDS011;67767;45.636;11.756;2024-01-07T09:50:06;4.90;;;1.88;;
73136;SDS011;67767;45.636;11.756;2024-01-07T09:52:34;4.82;;;2.10;;
73136;SDS011;67767;45.636;11.756;2024-01-07T09:55:02;8.27;;;4.23;;
73136;SDS011;67767;45.636;11.756;2024-01-07T09:57:28;6.40;;;2.97;;
73136;SDS011;67767;45.636;11.756;2024-01-07T09:59:55;5.97;;;2.50;;
73136;SDS011;67767;45.636;11.756;2024-01-07T10:02:20;5.78;;;2.40;;
73136;SDS011;67767;45.636;11.756;2024-01-07T10:04:49;5.53;;;2.70;;
73136;SDS011;67767;45.636;11.756;2024-01-07T10:07:15;6.65;;;2.75;;
73136;SDS011;67767;45.636;11.756;2024-01-07T10:09:42;6.70;;;3.45;;
73136;SDS011;67767;45.636;11.756;2024-01-07T10:12:08;6.68;;;3.05;;
73136;SDS011;67767;45.636;11.756;2024-01-07T10:14:35;8.07;;;3.70;;
73136;SDS011;67767;45.636;11.756;2024-01-07T10:17:00;7.13;;;3.40;;
73136;SDS011;67767;45.636;11.756;2024-01-07T10:19:26;6.97;;;2.97;;
73136;SDS011;67767;45.636;11.756;2024-01-07T10:21:59;5.10;;;2.43;;
73136;SDS011;67767;45.636;11.756;2024-01-07T10:24:26;8.07;;;3.05;;
73136;SDS011;67767;45.636;11.756;2024-01-07T10:26:52;7.75;;;3.63;;
73136;SDS011;67767;45.636;11.756;2024-01-07T10:29:17;10.70;;;5.40;;
73136;SDS011;67767;45.636;11.756;2024-01-07T10:31:43;9.80;;;5.40;;
73136;SDS011;67767;45.636;11.756;2024-01-07T10:34:11;12.57;;;6.23;;
73136;SDS011;67767;45.636;11.756;2024-01-07T10:36:39;10.38;;;5.63;;
73136;SDS011;67767;45.636;11.756;2024-01-07T10:39:06;13.98;;;7.22;;
73136;SDS011;67767;45.636;11.756;2024-01-07T10:41:31;45.00;;;23.87;;
73136;SDS011;67767;45.636;11.756;2024-01-07T10:44:00;26.70;;;15.30;;
73136;SDS011;67767;45.636;11.756;2024-01-07T10:46:27;17.58;;;9.90;;
73136;SDS011;67767;45.636;11.756;2024-01-07T10:48:58;17.17;;;9.90;;
73136;SDS011;67767;45.636;11.756;2024-01-07T10:51:26;16.60;;;10.30;;
73136;SDS011;67767;45.636;11.756;2024-01-07T10:53:55;10.30;;;5.87;;
73136;SDS011;67767;45.636;11.756;2024-01-07T10:56:25;10.65;;;6.18;;
73136;SDS011;67767;45.636;11.756;2024-01-07T10:58:57;11.73;;;6.63;;
73136;SDS011;67767;45.636;11.756;2024-01-07T11:01:24;10.95;;;5.80;;
73136;SDS011;67767;45.636;11.756;2024-01-07T11:04:01;10.57;;;6.10;;
73136;SDS011;67767;45.636;11.756;2024-01-07T11:11:49;7.05;;;3.50;;
73136;SDS011;67767;45.636;11.756;2024-01-07T11:17:04;10.03;;;4.87;;
73136;SDS011;67767;45.636;11.756;2024-01-07T11:19:31;7.47;;;4.40;;
73136;SDS011;67767;45.636;11.756;2024-01-07T11:24:54;8.93;;;4.57;;
73136;SDS011;67767;45.636;11.756;2024-01-07T11:27:25;8.17;;;4.37;;
73136;SDS011;67767;45.636;11.756;2024-01-07T11:29:56;8.88;;;4.38;;
73136;SDS011;67767;45.636;11.756;2024-01-07T11:32:29;9.30;;;4.35;;
73136;SDS011;67767;45.636;11.756;2024-01-07T11:34:54;8.65;;;4.40;;
73136;SDS011;67767;45.636;11.756;2024-01-07T11:37:22;8.00;;;3.95;;
73136;SDS011;67767;45.636;11.756;2024-01-07T11:39:48;7.67;;;3.87;;
73136;SDS011;67767;45.636;11.756;2024-01-07T11:42:16;9.30;;;4.50;;
73136;SDS011;67767;45.636;11.756;2024-01-07T11:44:46;8.35;;;4.47;;
73136;SDS011;67767;45.636;11.756;2024-01-07T11:47:13;7.82;;;4.00;;
73136;SDS011;67767;45.636;11.756;2024-01-07T11:49:42;8.60;;;4.45;;
73136;SDS011;67767;45.636;11.756;2024-01-07T11:52:08;10.57;;;4.90;;
73136;SDS011;67767;45.636;11.756;2024-01-07T11:54:35;9.32;;;4.93;;
73136;SDS011;67767;45.636;11.756;2024-01-07T11:57:02;7.97;;;4.43;;
73136;SDS011;67767;45.636;11.756;2024-01-07T11:59:31;9.55;;;5.07;;
73136;SDS011;67767;45.636;11.756;2024-01-07T12:01:59;8.77;;;4.63;;
73136;SDS011;67767;45.636;11.756;2024-01-07T12:04:25;9.73;;;4.60;;
73136;SDS011;67767;45.636;11.756;2024-01-07T12:06:51;9.23;;;4.53;;
73136;SDS011;67767;45.636;11.756;2024-01-07T12:09:17;9.10;;;4.50;;
73136;SDS011;67767;45.636;11.756;2024-01-07T12:11:42;8.13;;;4.70;;
73136;SDS011;67767;45.636;11.756;2024-01-07T12:14:09;9.80;;;5.45;;
73136;SDS011;67767;45.636;11.756;2024-01-07T12:16:36;12.18;;;5.97;;
73136;SDS011;67767;45.636;11.756;2024-01-07T12:19:08;14.87;;;6.80;;
73136;SDS011;67767;45.636;11.756;2024-01-07T12:21:34;15.23;;;7.47;;
73136;SDS011;67767;45.636;11.756;2024-01-07T12:24:00;16.95;;;7.68;;
73136;SDS011;67767;45.636;11.756;2024-01-07T12:26:29;13.50;;;6.32;;
73136;SDS011;67767;45.636;11.756;2024-01-07T12:28:55;17.17;;;8.27;;
73136;SDS011;67767;45.636;11.756;2024-01-07T12:31:31;9.87;;;5.33;;
73136;SDS011;67767;45.636;11.756;2024-01-07T12:34:00;11.27;;;5.38;;
73136;SDS011;67767;45.636;11.756;2024-01-07T12:36:33;10.20;;;5.47;;
73136;SDS011;67767;45.636;11.756;2024-01-07T12:38:59;9.05;;;5.00;;
73136;SDS011;67767;45.636;11.756;2024-01-07T12:41:24;9.73;;;5.73;;
73136;SDS011;67767;45.636;11.756;2024-01-07T12:43:50;11.40;;;5.82;;
73136;SDS011;67767;45.636;11.756;2024-01-07T12:46:16;12.57;;;5.80;;
73136;SDS011;67767;45.636;11.756;2024-01-07T12:48:42;12.27;;;5.85;;
73136;SDS011;67767;45.636;11.756;2024-01-07T12:51:07;13.23;;;6.57;;
73136;SDS011;67767;45.636;11.756;2024-01-07T12:53:33;12.05;;;6.30;;
73136;SDS011;67767;45.636;11.756;2024-01-07T12:55:59;12.73;;;6.83;;
73136;SDS011;67767;45.636;11.756;2024-01-07T12:58:24;16.83;;;7.40;;
73136;SDS011;67767;45.636;11.756;2024-01-07T13:00:50;13.20;;;5.90;;
73136;SDS011;67767;45.636;11.756;2024-01-07T13:03:16;15.55;;;7.30;;
73136;SDS011;67767;45.636;11.756;2024-01-07T13:05:43;13.85;;;6.10;;
73136;SDS011;67767;45.636;11.756;2024-01-07T13:08:09;11.75;;;5.82;;
73136;SDS011;67767;45.636;11.756;2024-01-07T13:10:35;11.40;;;5.47;;
73136;SDS011;67767;45.636;11.756;2024-01-07T13:13:00;12.13;;;6.17;;
73136;SDS011;67767;45.636;11.756;2024-01-07T13:15:26;11.82;;;5.82;;
73136;SDS011;67767;45.636;11.756;2024-01-07T13:17:52;9.83;;;5.17;;
73136;SDS011;67767;45.636;11.756;2024-01-07T13:20:17;12.60;;;6.38;;
73136;SDS011;67767;45.636;11.756;2024-01-07T13:22:45;18.53;;;8.33;;
73136;SDS011;67767;45.636;11.756;2024-01-07T13:25:14;14.98;;;7.45;;
73136;SDS011;67767;45.636;11.756;2024-01-07T13:27:39;15.38;;;7.90;;
73136;SDS011;67767;45.636;11.756;2024-01-07T13:30:07;13.20;;;6.97;;
73136;SDS011;67767;45.636;11.756;2024-01-07T13:32:33;15.73;;;7.40;;
73136;SDS011;67767;45.636;11.756;2024-01-07T13:35:02;12.63;;;6.93;;
73136;SDS011;67767;45.636;11.756;2024-01-07T13:37:29;13.70;;;8.70;;
73136;SDS011;67767;45.636;11.756;2024-01-07T13:40:00;12.82;;;7.13;;
73136;SDS011;67767;45.636;11.756;2024-01-07T13:42:29;12.07;;;7.30;;
73136;SDS011;67767;45.636;11.756;2024-01-07T13:44:54;12.30;;;6.60;;
73136;SDS011;67767;45.636;11.756;2024-01-07T13:47:26;12.68;;;5.90;;
73136;SDS011;67767;45.636;11.756;2024-01-07T13:49:57;9.50;;;5.25;;
73136;SDS011;67767;45.636;11.756;2024-01-07T13:52:27;14.13;;;8.68;;
73136;SDS011;67767;45.636;11.756;2024-01-07T13:54:54;10.43;;;5.80;;
73136;SDS011;67767;45.636;11.756;2024-01-07T13:57:24;12.23;;;7.20;;
73136;SDS011;67767;45.636;11.756;2024-01-07T13:59:55;12.35;;;7.55;;
73136;SDS011;67767;45.636;11.756;2024-01-07T14:02:21;10.45;;;5.82;;
73136;SDS011;67767;45.636;11.756;2024-01-07T14:04:53;12.70;;;6.28;;
73136;SDS011;67767;45.636;11.756;2024-01-07T14:07:20;11.43;;;6.47;;
73136;SDS011;67767;45.636;11.756;2024-01-07T14:09:46;11.52;;;6.55;;
73136;SDS011;67767;45.636;11.756;2024-01-07T14:12:15;13.70;;;7.07;;
73136;SDS011;67767;45.636;11.756;2024-01-07T14:14:40;12.70;;;7.67;;
73136;SDS011;67767;45.636;11.756;2024-01-07T14:17:06;18.87;;;9.87;;
73136;SDS011;67767;45.636;11.756;2024-01-07T14:19:33;11.83;;;8.00;;
73136;SDS011;67767;45.636;11.756;2024-01-07T14:21:58;14.48;;;8.15;;
73136;SDS011;67767;45.636;11.756;2024-01-07T14:24:24;17.50;;;9.15;;
73136;SDS011;67767;45.636;11.756;2024-01-07T14:26:50;35.03;;;14.60;;
73136;SDS011;67767;45.636;11.756;2024-01-07T14:29:15;19.70;;;11.52;;
73136;SDS011;67767;45.636;11.756;2024-01-07T14:31:41;17.60;;;10.67;;
73136;SDS011;67767;45.636;11.756;2024-01-07T14:34:07;18.27;;;9.50;;
73136;SDS011;67767;45.636;11.756;2024-01-07T14:36:32;24.73;;;14.15;;